sensor_id;sensor_type;location;lat;lon;timestamp;P1;durP1;ratioP1;P2;durP2;ratioP2
3941;SDS011;1985;48.592;8.850;2022-09-09T00:04:26;9.32;;;1.42;;
3941;SDS011;1985;48.592;8.850;2022-09-09T00:07:04;10.32;;;1.70;;
3941;SDS011;1985;48.592;8.850;2022-09-09T00:09:46;12.70;;;1.40;;
3941;SDS011;1985;48.592;8.850;2022-09-09T00:12:19;8.90;;;1.30;;
3941;SDS011;1985;48.592;8.850;2022-09-09T00:17:33;9.13;;;1.40;;
3941;SDS011;1985;48.592;8.850;2022-09-09T00:20:21;9.77;;;1.27;;
3941;SDS011;1985;48.592;8.850;2022-09-09T00:23:03;9.80;;;1.45;;
3941;SDS011;1985;48.592;8.850;2022-09-09T00:25:36;10.77;;;1.50;;
3941;SDS011;1985;48.592;8.850;2022-09-09T00:28:16;14.23;;;1.40;;
3941;SDS011;1985;48.592;8.850;2022-09-09T00:30:45;9.73;;;1.45;;
3941;SDS011;1985;48.592;8.850;2022-09-09T00:33:13;8.70;;;1.20;;
3941;SDS011;1985;48.592;8.850;2022-09-09T00:35:44;9.95;;;1.50;;
3941;SDS011;1985;48.592;8.850;2022-09-09T00:38:31;8.82;;;1.30;;
3941;SDS011;1985;48.592;8.850;2022-09-09T00:43:31;10.85;;;1.50;;
3941;SDS011;1985;48.592;8.850;2022-09-09T00:57:28;9.40;;;1.70;;
3941;SDS011;1985;48.592;8.850;2022-09-09T01:08:15;9.43;;;1.50;;
3941;SDS011;1985;48.592;8.850;2022-09-09T01:10:49;8.35;;;1.10;;
3941;SDS011;1985;48.592;8.850;2022-09-09T01:13:22;8.90;;;1.10;;
3941;SDS011;1985;48.592;8.850;2022-09-09T01:15:55;9.48;;;1.40;;
3941;SDS011;1985;48.592;8.850;2022-09-09T01:18:26;9.48;;;1.50;;
3941;SDS011;1985;48.592;8.850;2022-09-09T01:28:57;17.10;;;1.20;;
3941;SDS011;1985;48.592;8.850;2022-09-09T01:31:26;10.87;;;1.30;;
3941;SDS011;1985;48.592;8.850;2022-09-09T01:34:08;10.52;;;1.15;;
3941;SDS011;1985;48.592;8.850;2022-09-09T01:36:38;8.75;;;1.30;;
3941;SDS011;1985;48.592;8.850;2022-09-09T01:39:37;8.18;;;1.00;;
3941;SDS011;1985;48.592;8.850;2022-09-09T01:42:06;8.43;;;1.10;;
3941;SDS011;1985;48.592;8.850;2022-09-09T01:44:36;9.47;;;1.50;;
3941;SDS011;1985;48.592;8.850;2022-09-09T01:47:03;9.10;;;1.40;;
3941;SDS011;1985;48.592;8.850;2022-09-09T01:49:30;10.40;;;1.85;;
3941;SDS011;1985;48.592;8.850;2022-09-09T01:51:57;9.50;;;1.60;;
3941;SDS011;1985;48.592;8.850;2022-09-09T01:54:25;9.70;;;1.80;;
3941;SDS011;1985;48.592;8.850;2022-09-09T02:10:00;9.40;;;1.30;;
3941;SDS011;1985;48.592;8.850;2022-09-09T02:12:35;9.77;;;1.50;;
3941;SDS011;1985;48.592;8.850;2022-09-09T02:15:07;8.70;;;1.30;;
3941;SDS011;1985;48.592;8.850;2022-09-09T02:17:40;13.43;;;1.77;;
3941;SDS011;1985;48.592;8.850;2022-09-09T02:20:08;9.80;;;1.30;;
3941;SDS011;1985;48.592;8.850;2022-09-09T02:22:38;9.07;;;1.20;;
3941;SDS011;1985;48.592;8.850;2022-09-09T02:25:08;9.77;;;1.30;;
3941;SDS011;1985;48.592;8.850;2022-09-09T02:27:36;10.00;;;1.50;;
3941;SDS011;1985;48.592;8.850;2022-09-09T02:30:03;9.90;;;1.60;;
3941;SDS011;1985;48.592;8.850;2022-09-09T02:32:29;8.10;;;1.08;;
3941;SDS011;1985;48.592;8.850;2022-09-09T02:35:04;8.40;;;1.40;;
3941;SDS011;1985;48.592;8.850;2022-09-09T02:37:37;10.90;;;1.40;;
3941;SDS011;1985;48.592;8.850;2022-09-09T02:40:04;8.50;;;1.30;;
3941;SDS011;1985;48.592;8.850;2022-09-09T02:42:32;8.75;;;1.40;;
3941;SDS011;1985;48.592;8.850;2022-09-09T02:45:03;8.55;;;1.13;;
3941;SDS011;1985;48.592;8.850;2022-09-09T02:58:12;10.40;;;1.50;;
3941;SDS011;1985;48.592;8.850;2022-09-09T03:00:45;8.77;;;1.10;;
3941;SDS011;1985;48.592;8.850;2022-09-09T03:03:12;8.60;;;1.30;;
3941;SDS011;1985;48.592;8.850;2022-09-09T03:05:38;8.25;;;1.15;;
3941;SDS011;1985;48.592;8.850;2022-09-09T03:08:04;9.97;;;1.47;;
3941;SDS011;1985;48.592;8.850;2022-09-09T03:10:33;9.80;;;1.50;;
3941;SDS011;1985;48.592;8.850;2022-09-09T03:12:59;8.82;;;1.30;;
3941;SDS011;1985;48.592;8.850;2022-09-09T03:15:25;9.32;;;1.20;;
3941;SDS011;1985;48.592;8.850;2022-09-09T03:17:56;10.52;;;1.15;;
3941;SDS011;1985;48.592;8.850;2022-09-09T03:20:26;11.70;;;1.10;;
3941;SDS011;1985;48.592;8.850;2022-09-09T03:22:53;8.30;;;1.10;;
3941;SDS011;1985;48.592;8.850;2022-09-09T03:25:20;10.10;;;1.80;;
3941;SDS011;1985;48.592;8.850;2022-09-09T03:27:48;9.33;;;1.23;;
3941;SDS011;1985;48.592;8.850;2022-09-09T03:30:14;8.30;;;1.30;;
3941;SDS011;1985;48.592;8.850;2022-09-09T03:32:40;8.45;;;1.15;;
3941;SDS011;1985;48.592;8.850;2022-09-09T03:35:06;10.43;;;1.40;;
3941;SDS011;1985;48.592;8.850;2022-09-09T03:37:32;11.20;;;1.30;;
3941;SDS011;1985;48.592;8.850;2022-09-09T03:39:58;9.10;;;1.30;;
3941;SDS011;1985;48.592;8.850;2022-09-09T03:42:24;8.50;;;1.20;;
3941;SDS011;1985;48.592;8.850;2022-09-09T03:44:50;8.70;;;1.30;;
3941;SDS011;1985;48.592;8.850;2022-09-09T03:47:17;9.03;;;1.13;;
3941;SDS011;1985;48.592;8.850;2022-09-09T03:49:43;9.00;;;1.13;;
3941;SDS011;1985;48.592;8.850;2022-09-09T03:52:09;10.30;;;1.40;;
3941;SDS011;1985;48.592;8.850;2022-09-09T03:54:35;8.80;;;1.10;;
3941;SDS011;1985;48.592;8.850;2022-09-09T03:57:00;8.43;;;1.20;;
3941;SDS011;1985;48.592;8.850;2022-09-09T03:59:27;8.70;;;1.10;;
3941;SDS011;1985;48.592;8.850;2022-09-09T04:01:52;8.68;;;1.20;;
3941;SDS011;1985;48.592;8.850;2022-09-09T04:04:18;10.02;;;1.40;;
3941;SDS011;1985;48.592;8.850;2022-09-09T04:06:45;9.02;;;1.10;;
3941;SDS011;1985;48.592;8.850;2022-09-09T04:09:11;9.32;;;1.20;;
3941;SDS011;1985;48.592;8.850;2022-09-09T04:11:37;10.20;;;1.30;;
3941;SDS011;1985;48.592;8.850;2022-09-09T04:14:02;8.13;;;1.20;;
3941;SDS011;1985;48.592;8.850;2022-09-09T04:16:30;9.90;;;1.40;;
3941;SDS011;1985;48.592;8.850;2022-09-09T04:18:57;9.87;;;1.60;;
3941;SDS011;1985;48.592;8.850;2022-09-09T04:21:24;9.73;;;1.80;;
3941;SDS011;1985;48.592;8.850;2022-09-09T04:23:50;8.90;;;1.40;;
3941;SDS011;1985;48.592;8.850;2022-09-09T04:26:16;12.23;;;1.33;;
3941;SDS011;1985;48.592;8.850;2022-09-09T04:28:42;8.70;;;1.30;;
3941;SDS011;1985;48.592;8.850;2022-09-09T04:31:09;12.60;;;1.60;;
3941;SDS011;1985;48.592;8.850;2022-09-09T04:33:39;8.20;;;1.20;;
3941;SDS011;1985;48.592;8.850;2022-09-09T04:36:05;8.70;;;1.30;;
3941;SDS011;1985;48.592;8.850;2022-09-09T04:38:31;9.75;;;1.20;;
3941;SDS011;1985;48.592;8.850;2022-09-09T04:40:56;8.60;;;1.30;;
3941;SDS011;1985;48.592;8.850;2022-09-09T04:43:22;8.20;;;1.10;;
3941;SDS011;1985;48.592;8.850;2022-09-09T04:45:51;8.30;;;1.10;;
3941;SDS011;1985;48.592;8.850;2022-09-09T04:48:17;9.10;;;1.50;;
3941;SDS011;1985;48.592;8.850;2022-09-09T04:50:43;10.20;;;1.77;;
3941;SDS011;1985;48.592;8.850;2022-09-09T04:53:09;10.40;;;1.30;;
3941;SDS011;1985;48.592;8.850;2022-09-09T04:55:34;10.10;;;2.00;;
3941;SDS011;1985;48.592;8.850;2022-09-09T04:58:07;12.57;;;2.08;;
3941;SDS011;1985;48.592;8.850;2022-09-09T05:00:34;10.20;;;1.50;;
3941;SDS011;1985;48.592;8.850;2022-09-09T05:03:04;9.20;;;1.60;;
3941;SDS011;1985;48.592;8.850;2022-09-09T05:05:31;9.07;;;1.40;;
3941;SDS011;1985;48.592;8.850;2022-09-09T05:08:02;9.50;;;1.80;;
3941;SDS011;1985;48.592;8.850;2022-09-09T05:10:29;9.75;;;1.92;;
3941;SDS011;1985;48.592;8.850;2022-09-09T05:12:55;12.60;;;1.60;;
3941;SDS011;1985;48.592;8.850;2022-09-09T05:15:21;15.15;;;1.70;;
3941;SDS011;1985;48.592;8.850;2022-09-09T05:17:46;10.63;;;2.03;;
3941;SDS011;1985;48.592;8.850;2022-09-09T05:20:12;10.88;;;2.30;;
3941;SDS011;1985;48.592;8.850;2022-09-09T05:22:38;10.60;;;1.90;;
3941;SDS011;1985;48.592;8.850;2022-09-09T05:25:03;9.40;;;1.50;;
3941;SDS011;1985;48.592;8.850;2022-09-09T05:27:29;10.65;;;1.63;;
3941;SDS011;1985;48.592;8.850;2022-09-09T05:29:58;10.10;;;1.95;;
3941;SDS011;1985;48.592;8.850;2022-09-09T05:32:23;8.50;;;1.40;;
3941;SDS011;1985;48.592;8.850;2022-09-09T05:34:49;8.23;;;1.10;;
3941;SDS011;1985;48.592;8.850;2022-09-09T05:37:15;9.10;;;1.40;;
3941;SDS011;1985;48.592;8.850;2022-09-09T05:39:41;11.10;;;1.30;;
3941;SDS011;1985;48.592;8.850;2022-09-09T05:42:07;9.33;;;1.20;;
3941;SDS011;1985;48.592;8.850;2022-09-09T05:44:32;8.97;;;1.40;;
3941;SDS011;1985;48.592;8.850;2022-09-09T05:46:58;8.20;;;1.10;;
3941;SDS011;1985;48.592;8.850;2022-09-09T05:49:24;10.67;;;1.50;;
3941;SDS011;1985;48.592;8.850;2022-09-09T05:51:50;9.70;;;1.50;;
3941;SDS011;1985;48.592;8.850;2022-09-09T05:54:16;10.20;;;1.40;;
3941;SDS011;1985;48.592;8.850;2022-09-09T05:56:41;10.82;;;1.17;;
3941;SDS011;1985;48.592;8.850;2022-09-09T05:59:07;9.17;;;1.23;;
3941;SDS011;1985;48.592;8.850;2022-09-09T06:01:34;10.00;;;1.63;;
3941;SDS011;1985;48.592;8.850;2022-09-09T06:04:05;9.45;;;1.20;;
3941;SDS011;1985;48.592;8.850;2022-09-09T06:06:31;8.40;;;1.30;;
3941;SDS011;1985;48.592;8.850;2022-09-09T06:09:02;8.20;;;1.20;;
3941;SDS011;1985;48.592;8.850;2022-09-09T06:11:31;10.60;;;1.40;;
3941;SDS011;1985;48.592;8.850;2022-09-09T06:13:58;8.63;;;1.30;;
3941;SDS011;1985;48.592;8.850;2022-09-09T06:16:25;8.60;;;1.40;;
3941;SDS011;1985;48.592;8.850;2022-09-09T06:18:52;8.35;;;1.30;;
3941;SDS011;1985;48.592;8.850;2022-09-09T06:21:23;9.20;;;1.40;;
3941;SDS011;1985;48.592;8.850;2022-09-09T06:23:50;8.80;;;1.40;;
3941;SDS011;1985;48.592;8.850;2022-09-09T06:26:22;8.20;;;1.30;;
3941;SDS011;1985;48.592;8.850;2022-09-09T06:28:50;9.45;;;1.50;;
3941;SDS011;1985;48.592;8.850;2022-09-09T06:31:18;9.05;;;1.42;;
3941;SDS011;1985;48.592;8.850;2022-09-09T06:33:48;8.60;;;1.30;;
3941;SDS011;1985;48.592;8.850;2022-09-09T06:36:16;10.90;;;1.40;;
3941;SDS011;1985;48.592;8.850;2022-09-09T06:38:47;10.20;;;1.90;;
3941;SDS011;1985;48.592;8.850;2022-09-09T06:41:13;8.90;;;1.40;;
3941;SDS011;1985;48.592;8.850;2022-09-09T06:43:40;11.27;;;1.63;;
3941;SDS011;1985;48.592;8.850;2022-09-09T06:46:10;9.00;;;1.40;;
3941;SDS011;1985;48.592;8.850;2022-09-09T06:48:41;9.48;;;1.50;;
3941;SDS011;1985;48.592;8.850;2022-09-09T06:51:10;9.88;;;1.50;;
3941;SDS011;1985;48.592;8.850;2022-09-09T06:53:36;8.98;;;1.65;;
3941;SDS011;1985;48.592;8.850;2022-09-09T06:56:19;10.80;;;1.50;;
3941;SDS011;1985;48.592;8.850;2022-09-09T06:58:46;13.18;;;1.65;;
3941;SDS011;1985;48.592;8.850;2022-09-09T07:01:14;8.13;;;1.10;;
3941;SDS011;1985;48.592;8.850;2022-09-09T07:03:42;9.93;;;1.40;;
3941;SDS011;1985;48.592;8.850;2022-09-09T07:06:14;9.27;;;1.70;;
3941;SDS011;1985;48.592;8.850;2022-09-09T07:08:48;8.00;;;1.30;;
3941;SDS011;1985;48.592;8.850;2022-09-09T07:11:18;10.10;;;1.45;;
3941;SDS011;1985;48.592;8.850;2022-09-09T07:13:45;8.45;;;1.50;;
3941;SDS011;1985;48.592;8.850;2022-09-09T07:16:12;8.80;;;1.10;;
3941;SDS011;1985;48.592;8.850;2022-09-09T07:18:40;8.90;;;1.30;;
3941;SDS011;1985;48.592;8.850;2022-09-09T07:21:07;10.20;;;1.70;;
3941;SDS011;1985;48.592;8.850;2022-09-09T07:23:34;8.77;;;1.40;;
3941;SDS011;1985;48.592;8.850;2022-09-09T07:26:00;8.68;;;1.40;;
3941;SDS011;1985;48.592;8.850;2022-09-09T07:28:27;10.10;;;1.60;;
3941;SDS011;1985;48.592;8.850;2022-09-09T07:30:56;8.75;;;1.50;;
3941;SDS011;1985;48.592;8.850;2022-09-09T07:33:24;10.27;;;1.27;;
3941;SDS011;1985;48.592;8.850;2022-09-09T07:35:50;8.60;;;1.60;;
3941;SDS011;1985;48.592;8.850;2022-09-09T07:38:17;10.05;;;1.50;;
3941;SDS011;1985;48.592;8.850;2022-09-09T07:40:43;10.10;;;1.35;;
3941;SDS011;1985;48.592;8.850;2022-09-09T07:43:09;9.50;;;1.57;;
3941;SDS011;1985;48.592;8.850;2022-09-09T07:45:36;9.40;;;1.60;;
3941;SDS011;1985;48.592;8.850;2022-09-09T07:48:03;9.73;;;1.43;;
3941;SDS011;1985;48.592;8.850;2022-09-09T07:50:30;9.18;;;1.20;;
3941;SDS011;1985;48.592;8.850;2022-09-09T07:52:56;8.80;;;1.40;;
3941;SDS011;1985;48.592;8.850;2022-09-09T07:55:22;10.10;;;1.50;;
3941;SDS011;1985;48.592;8.850;2022-09-09T07:57:52;12.40;;;1.40;;
3941;SDS011;1985;48.592;8.850;2022-09-09T08:00:18;9.60;;;1.30;;
3941;SDS011;1985;48.592;8.850;2022-09-09T08:02:44;8.65;;;1.40;;
3941;SDS011;1985;48.592;8.850;2022-09-09T08:05:11;12.00;;;1.17;;
3941;SDS011;1985;48.592;8.850;2022-09-09T08:07:37;8.32;;;1.10;;
3941;SDS011;1985;48.592;8.850;2022-09-09T08:10:03;9.02;;;1.20;;
3941;SDS011;1985;48.592;8.850;2022-09-09T08:12:29;8.90;;;1.90;;
3941;SDS011;1985;48.592;8.850;2022-09-09T08:14:55;8.67;;;1.17;;
3941;SDS011;1985;48.592;8.850;2022-09-09T08:17:20;9.63;;;1.43;;
3941;SDS011;1985;48.592;8.850;2022-09-09T08:19:46;12.82;;;1.40;;
3941;SDS011;1985;48.592;8.850;2022-09-09T08:22:11;11.10;;;1.50;;
3941;SDS011;1985;48.592;8.850;2022-09-09T08:24:37;11.93;;;1.87;;
3941;SDS011;1985;48.592;8.850;2022-09-09T08:27:03;10.15;;;1.10;;
3941;SDS011;1985;48.592;8.850;2022-09-09T08:29:29;10.50;;;1.60;;
3941;SDS011;1985;48.592;8.850;2022-09-09T08:31:56;10.07;;;1.38;;
3941;SDS011;1985;48.592;8.850;2022-09-09T08:34:23;14.20;;;1.35;;
3941;SDS011;1985;48.592;8.850;2022-09-09T08:36:51;18.15;;;1.38;;
3941;SDS011;1985;48.592;8.850;2022-09-09T08:39:18;9.27;;;1.38;;
3941;SDS011;1985;48.592;8.850;2022-09-09T08:47:46;8.73;;;1.50;;
3941;SDS011;1985;48.592;8.850;2022-09-09T08:50:29;10.60;;;1.50;;
3941;SDS011;1985;48.592;8.850;2022-09-09T08:53:11;8.88;;;1.30;;
3941;SDS011;1985;48.592;8.850;2022-09-09T08:55:52;9.23;;;1.83;;
3941;SDS011;1985;48.592;8.850;2022-09-09T09:01:10;10.30;;;1.63;;
3941;SDS011;1985;48.592;8.850;2022-09-09T09:04:11;10.50;;;1.30;;
3941;SDS011;1985;48.592;8.850;2022-09-09T09:12:35;10.85;;;1.40;;
3941;SDS011;1985;48.592;8.850;2022-09-09T09:15:11;8.90;;;1.50;;
3941;SDS011;1985;48.592;8.850;2022-09-09T09:17:43;10.63;;;1.90;;
3941;SDS011;1985;48.592;8.850;2022-09-09T09:20:13;10.90;;;1.52;;
3941;SDS011;1985;48.592;8.850;2022-09-09T09:22:50;8.80;;;1.67;;
3941;SDS011;1985;48.592;8.850;2022-09-09T09:36:01;13.57;;;1.50;;
3941;SDS011;1985;48.592;8.850;2022-09-09T09:38:28;8.40;;;1.00;;
3941;SDS011;1985;48.592;8.850;2022-09-09T09:40:55;12.73;;;1.97;;
3941;SDS011;1985;48.592;8.850;2022-09-09T09:43:26;8.50;;;1.20;;
3941;SDS011;1985;48.592;8.850;2022-09-09T09:45:57;9.10;;;1.60;;
3941;SDS011;1985;48.592;8.850;2022-09-09T09:48:23;11.75;;;1.60;;
3941;SDS011;1985;48.592;8.850;2022-09-09T09:53:27;10.27;;;1.77;;
3941;SDS011;1985;48.592;8.850;2022-09-09T09:58:25;8.97;;;1.43;;
3941;SDS011;1985;48.592;8.850;2022-09-09T10:00:54;10.80;;;2.10;;
3941;SDS011;1985;48.592;8.850;2022-09-09T10:05:53;10.20;;;1.40;;
3941;SDS011;1985;48.592;8.850;2022-09-09T10:08:21;12.20;;;1.58;;
3941;SDS011;1985;48.592;8.850;2022-09-09T10:13:47;7.80;;;1.00;;
3941;SDS011;1985;48.592;8.850;2022-09-09T10:18:54;14.30;;;1.63;;
3941;SDS011;1985;48.592;8.850;2022-09-09T10:40:33;11.40;;;1.20;;
3941;SDS011;1985;48.592;8.850;2022-09-09T10:43:13;9.20;;;1.20;;
3941;SDS011;1985;48.592;8.850;2022-09-09T10:45:49;8.10;;;1.10;;
3941;SDS011;1985;48.592;8.850;2022-09-09T10:56:36;10.57;;;1.20;;
3941;SDS011;1985;48.592;8.850;2022-09-09T10:59:06;12.75;;;1.17;;
3941;SDS011;1985;48.592;8.850;2022-09-09T11:01:43;9.50;;;1.30;;
3941;SDS011;1985;48.592;8.850;2022-09-09T11:06:59;12.00;;;1.30;;
3941;SDS011;1985;48.592;8.850;2022-09-09T11:09:32;10.90;;;1.33;;
3941;SDS011;1985;48.592;8.850;2022-09-09T11:12:12;8.68;;;1.10;;
3941;SDS011;1985;48.592;8.850;2022-09-09T11:14:45;7.90;;;0.90;;
3941;SDS011;1985;48.592;8.850;2022-09-09T11:17:24;10.50;;;1.10;;
3941;SDS011;1985;48.592;8.850;2022-09-09T11:19:54;8.80;;;1.08;;
3941;SDS011;1985;48.592;8.850;2022-09-09T11:22:42;8.30;;;0.90;;
3941;SDS011;1985;48.592;8.850;2022-09-09T11:25:39;10.38;;;1.30;;
3941;SDS011;1985;48.592;8.850;2022-09-09T11:29:13;8.48;;;1.00;;
3941;SDS011;1985;48.592;8.850;2022-09-09T11:44:39;7.70;;;0.70;;
3941;SDS011;1985;48.592;8.850;2022-09-09T11:52:43;7.93;;;0.80;;
3941;SDS011;1985;48.592;8.850;2022-09-09T11:58:03;9.70;;;1.10;;
3941;SDS011;1985;48.592;8.850;2022-09-09T12:06:10;8.30;;;0.90;;
3941;SDS011;1985;48.592;8.850;2022-09-09T12:08:41;8.20;;;1.03;;
3941;SDS011;1985;48.592;8.850;2022-09-09T12:11:10;7.80;;;0.90;;
3941;SDS011;1985;48.592;8.850;2022-09-09T12:13:36;11.50;;;1.10;;
3941;SDS011;1985;48.592;8.850;2022-09-09T12:16:02;8.98;;;0.90;;
3941;SDS011;1985;48.592;8.850;2022-09-09T12:18:34;8.52;;;1.00;;
3941;SDS011;1985;48.592;8.850;2022-09-09T12:24:13;7.90;;;0.80;;
3941;SDS011;1985;48.592;8.850;2022-09-09T12:26:52;8.07;;;1.00;;
3941;SDS011;1985;48.592;8.850;2022-09-09T12:32:10;8.50;;;0.90;;
3941;SDS011;1985;48.592;8.850;2022-09-09T12:34:48;8.55;;;1.08;;
3941;SDS011;1985;48.592;8.850;2022-09-09T12:40:03;8.50;;;0.90;;
3941;SDS011;1985;48.592;8.850;2022-09-09T12:42:31;9.23;;;1.00;;
3941;SDS011;1985;48.592;8.850;2022-09-09T12:45:01;8.20;;;1.17;;
3941;SDS011;1985;48.592;8.850;2022-09-09T12:50:56;7.95;;;0.93;;
3941;SDS011;1985;48.592;8.850;2022-09-09T12:53:23;9.10;;;1.13;;
3941;SDS011;1985;48.592;8.850;2022-09-09T12:56:04;10.20;;;1.10;;
3941;SDS011;1985;48.592;8.850;2022-09-09T12:58:35;7.85;;;0.80;;
3941;SDS011;1985;48.592;8.850;2022-09-09T13:01:03;11.25;;;1.17;;
3941;SDS011;1985;48.592;8.850;2022-09-09T13:03:30;10.00;;;1.05;;
3941;SDS011;1985;48.592;8.850;2022-09-09T13:05:58;9.40;;;0.90;;
3941;SDS011;1985;48.592;8.850;2022-09-09T13:08:36;11.80;;;1.00;;
3941;SDS011;1985;48.592;8.850;2022-09-09T13:11:03;11.10;;;1.70;;
3941;SDS011;1985;48.592;8.850;2022-09-09T13:13:36;8.35;;;1.00;;
3941;SDS011;1985;48.592;8.850;2022-09-09T13:16:05;9.80;;;0.93;;
3941;SDS011;1985;48.592;8.850;2022-09-09T13:18:34;11.50;;;1.00;;
3941;SDS011;1985;48.592;8.850;2022-09-09T13:21:01;8.00;;;0.80;;
3941;SDS011;1985;48.592;8.850;2022-09-09T13:23:29;9.40;;;0.90;;
3941;SDS011;1985;48.592;8.850;2022-09-09T13:26:00;8.40;;;1.00;;
3941;SDS011;1985;48.592;8.850;2022-09-09T13:28:29;11.52;;;1.08;;
3941;SDS011;1985;48.592;8.850;2022-09-09T13:31:00;9.48;;;1.10;;
3941;SDS011;1985;48.592;8.850;2022-09-09T13:36:05;8.48;;;0.82;;
3941;SDS011;1985;48.592;8.850;2022-09-09T13:38:37;8.65;;;1.20;;
3941;SDS011;1985;48.592;8.850;2022-09-09T13:41:06;8.18;;;0.90;;
3941;SDS011;1985;48.592;8.850;2022-09-09T13:43:37;7.95;;;0.90;;
3941;SDS011;1985;48.592;8.850;2022-09-09T13:51:38;8.80;;;0.90;;
3941;SDS011;1985;48.592;8.850;2022-09-09T13:54:12;7.90;;;0.80;;
3941;SDS011;1985;48.592;8.850;2022-09-09T13:56:39;7.80;;;0.90;;
3941;SDS011;1985;48.592;8.850;2022-09-09T13:59:08;9.10;;;0.80;;
3941;SDS011;1985;48.592;8.850;2022-09-09T14:01:36;7.90;;;1.00;;
3941;SDS011;1985;48.592;8.850;2022-09-09T14:04:02;7.70;;;0.85;;
3941;SDS011;1985;48.592;8.850;2022-09-09T14:06:29;9.68;;;1.10;;
3941;SDS011;1985;48.592;8.850;2022-09-09T14:08:55;9.48;;;1.00;;
3941;SDS011;1985;48.592;8.850;2022-09-09T14:11:21;8.30;;;1.00;;
3941;SDS011;1985;48.592;8.850;2022-09-09T14:13:47;9.27;;;1.00;;
3941;SDS011;1985;48.592;8.850;2022-09-09T14:16:15;9.45;;;1.10;;
3941;SDS011;1985;48.592;8.850;2022-09-09T14:18:42;7.90;;;1.00;;
3941;SDS011;1985;48.592;8.850;2022-09-09T14:21:09;8.20;;;1.00;;
3941;SDS011;1985;48.592;8.850;2022-09-09T14:23:36;8.13;;;0.95;;
3941;SDS011;1985;48.592;8.850;2022-09-09T14:26:03;7.60;;;0.80;;
3941;SDS011;1985;48.592;8.850;2022-09-09T14:28:29;9.18;;;1.10;;
3941;SDS011;1985;48.592;8.850;2022-09-09T14:30:58;7.90;;;0.95;;
3941;SDS011;1985;48.592;8.850;2022-09-09T14:33:25;12.00;;;1.00;;
3941;SDS011;1985;48.592;8.850;2022-09-09T14:35:57;8.30;;;1.10;;
3941;SDS011;1985;48.592;8.850;2022-09-09T14:38:24;9.70;;;1.17;;
3941;SDS011;1985;48.592;8.850;2022-09-09T14:40:50;9.35;;;1.00;;
3941;SDS011;1985;48.592;8.850;2022-09-09T14:43:16;8.30;;;0.90;;
3941;SDS011;1985;48.592;8.850;2022-09-09T14:45:41;8.30;;;1.20;;
3941;SDS011;1985;48.592;8.850;2022-09-09T14:48:08;9.50;;;1.10;;
3941;SDS011;1985;48.592;8.850;2022-09-09T14:50:34;8.23;;;1.02;;
3941;SDS011;1985;48.592;8.850;2022-09-09T14:53:01;9.80;;;1.00;;
3941;SDS011;1985;48.592;8.850;2022-09-09T14:55:27;8.30;;;1.00;;
3941;SDS011;1985;48.592;8.850;2022-09-09T14:57:54;9.25;;;0.93;;
3941;SDS011;1985;48.592;8.850;2022-09-09T15:00:19;8.18;;;1.08;;
3941;SDS011;1985;48.592;8.850;2022-09-09T15:02:45;8.40;;;1.10;;
3941;SDS011;1985;48.592;8.850;2022-09-09T15:05:11;8.80;;;1.00;;
3941;SDS011;1985;48.592;8.850;2022-09-09T15:07:36;8.00;;;0.90;;
3941;SDS011;1985;48.592;8.850;2022-09-09T15:10:03;7.82;;;1.00;;
3941;SDS011;1985;48.592;8.850;2022-09-09T15:12:29;8.40;;;0.90;;
3941;SDS011;1985;48.592;8.850;2022-09-09T15:14:54;9.50;;;1.10;;
3941;SDS011;1985;48.592;8.850;2022-09-09T15:17:20;8.20;;;1.00;;
3941;SDS011;1985;48.592;8.850;2022-09-09T15:19:46;8.10;;;0.90;;
3941;SDS011;1985;48.592;8.850;2022-09-09T15:22:12;10.38;;;1.40;;
3941;SDS011;1985;48.592;8.850;2022-09-09T15:24:38;7.65;;;0.73;;
3941;SDS011;1985;48.592;8.850;2022-09-09T15:27:03;11.40;;;1.30;;
3941;SDS011;1985;48.592;8.850;2022-09-09T15:29:29;8.30;;;1.10;;
3941;SDS011;1985;48.592;8.850;2022-09-09T15:31:55;7.72;;;0.90;;
3941;SDS011;1985;48.592;8.850;2022-09-09T15:34:20;13.10;;;1.20;;
3941;SDS011;1985;48.592;8.850;2022-09-09T15:36:47;7.90;;;0.90;;
3941;SDS011;1985;48.592;8.850;2022-09-09T15:39:16;8.45;;;0.90;;
3941;SDS011;1985;48.592;8.850;2022-09-09T15:41:46;10.00;;;0.90;;
3941;SDS011;1985;48.592;8.850;2022-09-09T15:44:12;7.80;;;0.93;;
3941;SDS011;1985;48.592;8.850;2022-09-09T15:46:39;8.75;;;1.08;;
3941;SDS011;1985;48.592;8.850;2022-09-09T15:51:38;8.10;;;1.00;;
3941;SDS011;1985;48.592;8.850;2022-09-09T15:54:16;7.80;;;0.90;;
3941;SDS011;1985;48.592;8.850;2022-09-09T15:56:42;9.40;;;1.00;;
3941;SDS011;1985;48.592;8.850;2022-09-09T15:59:09;8.90;;;0.95;;
3941;SDS011;1985;48.592;8.850;2022-09-09T16:01:35;8.30;;;0.90;;
3941;SDS011;1985;48.592;8.850;2022-09-09T16:04:01;9.70;;;0.98;;
3941;SDS011;1985;48.592;8.850;2022-09-09T16:06:27;8.20;;;0.90;;
3941;SDS011;1985;48.592;8.850;2022-09-09T16:08:54;9.88;;;0.98;;
3941;SDS011;1985;48.592;8.850;2022-09-09T16:11:22;8.60;;;0.90;;
3941;SDS011;1985;48.592;8.850;2022-09-09T16:13:50;9.57;;;1.10;;
3941;SDS011;1985;48.592;8.850;2022-09-09T16:16:18;7.80;;;0.90;;
3941;SDS011;1985;48.592;8.850;2022-09-09T16:18:47;8.10;;;0.90;;
3941;SDS011;1985;48.592;8.850;2022-09-09T16:21:15;7.70;;;0.80;;
3941;SDS011;1985;48.592;8.850;2022-09-09T16:23:46;7.70;;;0.80;;
3941;SDS011;1985;48.592;8.850;2022-09-09T16:26:14;8.20;;;0.80;;
3941;SDS011;1985;48.592;8.850;2022-09-09T16:28:41;7.70;;;0.80;;
3941;SDS011;1985;48.592;8.850;2022-09-09T16:31:07;7.70;;;0.90;;
3941;SDS011;1985;48.592;8.850;2022-09-09T16:33:35;7.60;;;0.80;;
3941;SDS011;1985;48.592;8.850;2022-09-09T16:36:05;7.70;;;0.90;;
3941;SDS011;1985;48.592;8.850;2022-09-09T16:38:31;7.70;;;0.90;;
3941;SDS011;1985;48.592;8.850;2022-09-09T16:41:01;8.00;;;0.90;;
3941;SDS011;1985;48.592;8.850;2022-09-09T16:43:29;7.80;;;0.90;;
3941;SDS011;1985;48.592;8.850;2022-09-09T16:45:54;7.60;;;0.80;;
3941;SDS011;1985;48.592;8.850;2022-09-09T16:48:20;8.30;;;0.90;;
3941;SDS011;1985;48.592;8.850;2022-09-09T16:50:46;7.60;;;0.80;;
3941;SDS011;1985;48.592;8.850;2022-09-09T16:53:11;7.70;;;0.90;;
3941;SDS011;1985;48.592;8.850;2022-09-09T16:55:38;9.10;;;0.93;;
3941;SDS011;1985;48.592;8.850;2022-09-09T16:58:05;7.70;;;0.77;;
3941;SDS011;1985;48.592;8.850;2022-09-09T17:00:32;8.00;;;0.90;;
3941;SDS011;1985;48.592;8.850;2022-09-09T17:02:58;8.60;;;0.90;;
3941;SDS011;1985;48.592;8.850;2022-09-09T17:05:24;9.38;;;1.10;;
3941;SDS011;1985;48.592;8.850;2022-09-09T17:07:50;7.70;;;0.80;;
3941;SDS011;1985;48.592;8.850;2022-09-09T17:10:16;8.05;;;0.88;;
3941;SDS011;1985;48.592;8.850;2022-09-09T17:12:42;7.70;;;0.80;;
3941;SDS011;1985;48.592;8.850;2022-09-09T17:15:07;8.47;;;0.93;;
3941;SDS011;1985;48.592;8.850;2022-09-09T17:17:34;10.30;;;1.08;;
3941;SDS011;1985;48.592;8.850;2022-09-09T17:20:00;9.95;;;0.90;;
3941;SDS011;1985;48.592;8.850;2022-09-09T17:22:27;9.05;;;1.00;;
3941;SDS011;1985;48.592;8.850;2022-09-09T17:24:52;8.00;;;0.90;;
3941;SDS011;1985;48.592;8.850;2022-09-09T17:27:18;9.00;;;0.90;;
3941;SDS011;1985;48.592;8.850;2022-09-09T17:29:43;8.45;;;0.90;;
3941;SDS011;1985;48.592;8.850;2022-09-09T17:32:09;8.10;;;0.90;;
3941;SDS011;1985;48.592;8.850;2022-09-09T17:34:35;8.00;;;0.90;;
3941;SDS011;1985;48.592;8.850;2022-09-09T17:37:01;9.70;;;1.30;;
3941;SDS011;1985;48.592;8.850;2022-09-09T17:39:26;10.20;;;1.00;;
3941;SDS011;1985;48.592;8.850;2022-09-09T17:41:52;15.07;;;1.10;;
3941;SDS011;1985;48.592;8.850;2022-09-09T17:44:19;8.80;;;1.05;;
3941;SDS011;1985;48.592;8.850;2022-09-09T17:46:45;10.00;;;1.10;;
3941;SDS011;1985;48.592;8.850;2022-09-09T17:49:15;8.73;;;1.05;;
3941;SDS011;1985;48.592;8.850;2022-09-09T17:51:42;8.90;;;1.00;;
3941;SDS011;1985;48.592;8.850;2022-09-09T17:54:13;8.30;;;1.00;;
3941;SDS011;1985;48.592;8.850;2022-09-09T17:56:41;8.90;;;1.00;;
3941;SDS011;1985;48.592;8.850;2022-09-09T17:59:08;7.82;;;0.90;;
3941;SDS011;1985;48.592;8.850;2022-09-09T18:01:38;8.52;;;1.00;;
3941;SDS011;1985;48.592;8.850;2022-09-09T18:04:06;8.52;;;1.10;;
3941;SDS011;1985;48.592;8.850;2022-09-09T18:06:34;9.05;;;1.05;;
3941;SDS011;1985;48.592;8.850;2022-09-09T18:09:05;10.40;;;1.30;;
3941;SDS011;1985;48.592;8.850;2022-09-09T18:11:38;9.10;;;1.10;;
3941;SDS011;1985;48.592;8.850;2022-09-09T18:14:08;11.10;;;0.98;;
3941;SDS011;1985;48.592;8.850;2022-09-09T18:16:35;7.70;;;0.80;;
3941;SDS011;1985;48.592;8.850;2022-09-09T18:19:05;7.85;;;0.93;;
3941;SDS011;1985;48.592;8.850;2022-09-09T18:21:33;9.27;;;1.10;;